Time,TemperatureF,DewpointF,PressureIn,WindDirection,WindDirectionDegrees,WindSpeedMPH,WindSpeedGustMPH,Humidity,HourlyPrecipIn,Conditions,Clouds,dailyrainin,SoftwareType,DateUTC
2013-09-27 00:12:00,47.0,45.0,-100.00,NNE,24,4.0,5.0,90,0.00,,,-99.99,,2013-09-27 07:12:00,
2013-09-27 00:22:00,47.0,45.0,-100.00,NNE,24,4.0,5.0,90,0.00,,,-99.99,,2013-09-27 07:22:00,
2013-09-27 00:32:00,47.0,45.0,-100.00,NNE,24,4.0,5.0,90,0.00,,,-99.99,,2013-09-27 07:32:00,
2013-09-27 00:43:00,47.0,45.0,-100.00,NNE,24,4.0,5.0,90,0.00,,,-99.99,,2013-09-27 07:43:00,
2013-09-27 01:11:00,46.0,44.0,-100.00,NE,34,3.0,5.0,91,0.00,,,-99.99,,2013-09-27 08:11:00,
2013-09-27 01:22:00,46.0,44.0,-100.00,NE,34,3.0,5.0,91,0.00,,,-99.99,,2013-09-27 08:22:00,
2013-09-27 01:32:00,46.0,44.0,-100.00,NE,34,3.0,5.0,91,0.00,,,-99.99,,2013-09-27 08:32:00,
2013-09-27 01:42:00,46.0,44.0,-100.00,NE,34,3.0,5.0,91,0.00,,,-99.99,,2013-09-27 08:42:00,
2013-09-27 02:12:00,44.0,42.0,-100.00,NNE,13,2.0,5.0,94,0.00,,,-99.99,,2013-09-27 09:12:00,
2013-09-27 02:22:00,44.0,42.0,-100.00,NNE,13,2.0,5.0,94,0.00,,,-99.99,,2013-09-27 09:22:00,
2013-09-27 02:33:00,44.0,42.0,-100.00,NNE,13,2.0,5.0,94,0.00,,,-99.99,,2013-09-27 09:33:00,
2013-09-27 02:44:00,44.0,42.0,-100.00,NNE,13,2.0,5.0,94,0.00,,,-99.99,,2013-09-27 09:44:00,
2013-09-27 03:13:00,43.0,42.0,-100.00,NNE,21,2.0,4.0,94,0.00,,,-99.99,,2013-09-27 10:13:00,
2013-09-27 03:23:00,43.0,42.0,-100.00,NNE,21,2.0,4.0,94,0.00,,,-99.99,,2013-09-27 10:23:00,
2013-09-27 03:33:00,43.0,42.0,-100.00,NNE,21,2.0,4.0,94,0.00,,,-99.99,,2013-09-27 10:33:00,
2013-09-27 03:42:00,43.0,42.0,-100.00,NNE,21,2.0,4.0,94,0.00,,,-99.99,,2013-09-27 10:42:00,
2013-09-27 04:22:00,42.0,41.0,-100.00,North,10,0.0,0.0,94,0.00,,,-99.99,,2013-09-27 11:22:00,
2013-09-27 04:33:00,42.0,41.0,-100.00,North,10,0.0,0.0,94,0.00,,,-99.99,,2013-09-27 11:33:00,
2013-09-27 04:42:00,42.0,41.0,-100.00,North,10,0.0,0.0,94,0.00,,,-99.99,,2013-09-27 11:42:00,
2013-09-27 05:21:00,42.0,41.0,-100.00,NE,44,0.0,0.0,94,0.00,,,-99.99,,2013-09-27 12:21:00,
2013-09-27 05:32:00,42.0,41.0,-100.00,NE,44,0.0,0.0,94,0.00,,,-99.99,,2013-09-27 12:32:00,
2013-09-27 05:42:00,42.0,41.0,-100.00,NE,44,0.0,0.0,94,0.00,,,-99.99,,2013-09-27 12:42:00,
2013-09-27 06:11:00,42.0,41.0,-100.00,South,186,0.0,0.0,96,0.00,,,-99.99,,2013-09-27 13:11:00,
2013-09-27 06:21:00,42.0,41.0,-100.00,South,186,0.0,0.0,96,0.00,,,-99.99,,2013-09-27 13:21:00,
2013-09-27 06:32:00,42.0,41.0,-100.00,South,186,0.0,0.0,96,0.00,,,-99.99,,2013-09-27 13:32:00,
2013-09-27 06:42:00,42.0,41.0,-100.00,South,186,0.0,0.0,96,0.00,,,-99.99,,2013-09-27 13:42:00,
2013-09-27 07:11:00,41.0,40.0,-100.00,NE,48,2.0,5.0,96,0.00,,,-99.99,,2013-09-27 14:11:00,
2013-09-27 07:21:00,41.0,40.0,-100.00,NE,48,2.0,5.0,96,0.00,,,-99.99,,2013-09-27 14:21:00,
2013-09-27 07:32:00,41.0,40.0,-100.00,NE,48,2.0,5.0,96,0.00,,,-99.99,,2013-09-27 14:32:00,
2013-09-27 07:42:00,41.0,40.0,-100.00,NE,48,2.0,5.0,96,0.00,,,-99.99,,2013-09-27 14:42:00,
2013-09-27 08:11:00,42.0,41.0,-100.00,NE,37,0.0,0.0,95,0.00,,,-99.99,,2013-09-27 15:11:00,
2013-09-27 08:21:00,42.0,41.0,-100.00,NE,37,0.0,0.0,95,0.00,,,-99.99,,2013-09-27 15:21:00,
2013-09-27 08:33:00,42.0,41.0,-100.00,NE,37,0.0,0.0,95,0.00,,,-99.99,,2013-09-27 15:33:00,
2013-09-27 08:43:00,42.0,41.0,-100.00,NE,37,0.0,0.0,95,0.00,,,-99.99,,2013-09-27 15:43:00,
2013-09-27 09:13:00,46.0,44.0,-100.00,North,350,0.0,2.0,91,0.00,,,-99.99,,2013-09-27 16:13:00,
2013-09-27 09:24:00,46.0,44.0,-100.00,North,350,0.0,2.0,91,0.00,,,-99.99,,2013-09-27 16:24:00,
2013-09-27 09:33:00,46.0,44.0,-100.00,North,350,0.0,2.0,91,0.00,,,-99.99,,2013-09-27 16:33:00,
2013-09-27 10:23:00,57.0,47.0,-100.00,WSW,242,1.0,4.0,69,0.00,,,-99.99,,2013-09-27 17:23:00,
2013-09-27 10:34:00,57.0,47.0,-100.00,WSW,242,1.0,4.0,69,0.00,,,-99.99,,2013-09-27 17:34:00,
2013-09-27 10:43:00,57.0,47.0,-100.00,WSW,242,1.0,4.0,69,0.00,,,-99.99,,2013-09-27 17:43:00,
2013-09-27 11:13:00,66.0,47.0,-100.00,West,260,5.0,8.0,50,0.00,,,-99.99,,2013-09-27 18:13:00,
2013-09-27 11:21:00,66.0,47.0,-100.00,West,260,5.0,8.0,50,0.00,,,-99.99,,2013-09-27 18:21:00,
2013-09-27 11:33:00,66.0,47.0,-100.00,West,260,5.0,8.0,50,0.00,,,-99.99,,2013-09-27 18:33:00,
2013-09-27 11:43:00,66.0,47.0,-100.00,West,260,5.0,8.0,50,0.00,,,-99.99,,2013-09-27 18:43:00,
2013-09-27 12:12:00,67.0,51.0,-100.00,WSW,256,8.0,11.0,57,0.00,,,-99.99,,2013-09-27 19:12:00,
2013-09-27 12:22:00,67.0,51.0,-100.00,WSW,256,8.0,11.0,57,0.00,,,-99.99,,2013-09-27 19:22:00,
2013-09-27 12:32:00,67.0,51.0,-100.00,WSW,256,8.0,11.0,57,0.00,,,-99.99,,2013-09-27 19:32:00,
2013-09-27 12:42:00,67.0,51.0,-100.00,WSW,256,8.0,11.0,57,0.00,,,-99.99,,2013-09-27 19:42:00,
2013-09-27 13:12:00,68.0,45.0,-100.00,WSW,257,9.0,13.0,44,0.00,,,-99.99,,2013-09-27 20:12:00,
2013-09-27 13:22:00,68.0,45.0,-100.00,WSW,257,9.0,13.0,44,0.00,,,-99.99,,2013-09-27 20:22:00,
2013-09-27 13:32:00,68.0,45.0,-100.00,WSW,257,9.0,13.0,44,0.00,,,-99.99,,2013-09-27 20:32:00,
2013-09-27 13:42:00,68.0,45.0,-100.00,WSW,257,9.0,13.0,44,0.00,,,-99.99,,2013-09-27 20:42:00,
2013-09-27 14:21:00,68.0,45.0,-100.00,WSW,248,8.0,12.0,45,0.00,,,-99.99,,2013-09-27 21:21:00,
2013-09-27 14:33:00,68.0,45.0,-100.00,WSW,248,8.0,12.0,45,0.00,,,-99.99,,2013-09-27 21:33:00,
2013-09-27 14:43:00,68.0,45.0,-100.00,WSW,248,8.0,12.0,45,0.00,,,-99.99,,2013-09-27 21:43:00,
2013-09-27 15:14:00,69.0,46.0,-100.00,West,274,13.0,17.0,44,0.00,,,-99.99,,2013-09-27 22:14:00,
2013-09-27 15:24:00,69.0,46.0,-100.00,West,274,13.0,17.0,44,0.00,,,-99.99,,2013-09-27 22:24:00,
2013-09-27 15:34:00,69.0,46.0,-100.00,West,274,13.0,17.0,44,0.00,,,-99.99,,2013-09-27 22:34:00,
2013-09-27 15:43:00,69.0,46.0,-100.00,West,274,13.0,17.0,44,0.00,,,-99.99,,2013-09-27 22:43:00,
2013-09-27 16:12:00,68.0,46.0,-100.00,West,280,14.0,19.0,44,0.00,,,-99.99,,2013-09-27 23:12:00,
2013-09-27 16:22:00,68.0,46.0,-100.00,West,280,14.0,19.0,44,0.00,,,-99.99,,2013-09-27 23:22:00,
2013-09-27 16:34:00,68.0,46.0,-100.00,West,280,14.0,19.0,44,0.00,,,-99.99,,2013-09-27 23:34:00,
2013-09-27 16:43:00,68.0,46.0,-100.00,West,280,14.0,19.0,44,0.00,,,-99.99,,2013-09-27 23:43:00,
2013-09-27 17:12:00,65.0,50.0,-100.00,West,267,12.0,17.0,58,0.00,,,-99.99,,2013-09-28 00:12:00,
2013-09-27 17:22:00,65.0,50.0,-100.00,West,267,12.0,17.0,58,0.00,,,-99.99,,2013-09-28 00:22:00,
2013-09-27 17:32:00,65.0,50.0,-100.00,West,267,12.0,17.0,58,0.00,,,-99.99,,2013-09-28 00:32:00,
2013-09-27 17:42:00,65.0,50.0,-100.00,West,267,12.0,17.0,58,0.00,,,-99.99,,2013-09-28 00:42:00,
2013-09-27 18:12:00,64.0,49.0,-100.00,North,4,1.0,5.0,57,0.00,,,-99.99,,2013-09-28 01:12:00,
2013-09-27 18:21:00,64.0,49.0,-100.00,North,4,1.0,5.0,57,0.00,,,-99.99,,2013-09-28 01:21:00,
2013-09-27 18:32:00,64.0,49.0,-100.00,North,4,1.0,5.0,57,0.00,,,-99.99,,2013-09-28 01:32:00,
2013-09-27 18:42:00,64.0,49.0,-100.00,North,4,1.0,5.0,57,0.00,,,-99.99,,2013-09-28 01:42:00,
2013-09-27 19:12:00,63.0,48.0,-100.00,South,170,4.0,-999.0,58,0.00,,,-99.99,,2013-09-28 02:12:00,
2013-09-27 19:22:00,63.0,48.0,-100.00,South,170,4.0,-999.0,58,0.00,,,-99.99,,2013-09-28 02:22:00,
2013-09-27 19:32:00,63.0,48.0,-100.00,South,170,4.0,-999.0,58,0.00,,,-99.99,,2013-09-28 02:32:00,
2013-09-27 19:42:00,63.0,48.0,-100.00,South,170,4.0,-999.0,58,0.00,,,-99.99,,2013-09-28 02:42:00,
2013-09-27 19:45:00,59.0,47.0,-100.00,ESE,120,3.0,8.0,64,0.00,,,-99.99,,2013-09-28 02:45:00,
2013-09-27 20:12:00,59.0,47.0,-100.00,ESE,120,3.0,8.0,64,0.00,,,-99.99,,2013-09-28 03:12:00,
2013-09-27 20:22:00,59.0,47.0,-100.00,ESE,120,3.0,8.0,64,0.00,,,-99.99,,2013-09-28 03:22:00,
2013-09-27 20:34:00,59.0,47.0,-100.00,ESE,120,3.0,8.0,64,0.00,,,-99.99,,2013-09-28 03:34:00,
2013-09-27 21:13:00,58.0,44.0,-100.00,ESE,113,4.0,9.0,59,0.00,,,-99.99,,2013-09-28 04:13:00,
2013-09-27 21:24:00,58.0,44.0,-100.00,ESE,113,4.0,9.0,59,0.00,,,-99.99,,2013-09-28 04:24:00,
2013-09-27 21:34:00,58.0,44.0,-100.00,ESE,113,4.0,9.0,59,0.00,,,-99.99,,2013-09-28 04:34:00,
2013-09-27 21:43:00,58.0,44.0,-100.00,ESE,113,4.0,9.0,59,0.00,,,-99.99,,2013-09-28 04:43:00,
2013-09-27 22:22:00,59.0,41.0,-100.00,East,87,2.0,5.0,52,0.00,,,-99.99,,2013-09-28 05:22:00,
2013-09-27 22:34:00,59.0,41.0,-100.00,East,87,2.0,5.0,52,0.00,,,-99.99,,2013-09-28 05:34:00,
2013-09-27 22:43:00,59.0,41.0,-100.00,East,87,2.0,5.0,52,0.00,,,-99.99,,2013-09-28 05:43:00,
2013-09-27 23:13:00,57.0,41.0,-100.00,NNE,25,0.0,0.0,54,0.00,,,-99.99,,2013-09-28 06:13:00,
2013-09-27 23:22:00,57.0,41.0,-100.00,NNE,25,0.0,0.0,54,0.00,,,-99.99,,2013-09-28 06:22:00,
2013-09-27 23:32:00,57.0,41.0,-100.00,NNE,25,0.0,0.0,54,0.00,,,-99.99,,2013-09-28 06:32:00,
2013-09-27 23:42:00,57.0,41.0,-100.00,NNE,25,0.0,0.0,54,0.00,,,-99.99,,2013-09-28 06:42:00,